createdAt,value
2022-08-03T00:01:27.428Z,0.90
2022-08-03T00:03:55.179Z,1.10
2022-08-03T00:06:22.923Z,0.90
2022-08-03T00:08:50.720Z,1.08
2022-08-03T00:11:18.524Z,0.90
2022-08-03T00:13:46.346Z,1.00
2022-08-03T00:16:14.517Z,1.00
2022-08-03T00:18:42.422Z,0.90
2022-08-03T00:21:10.187Z,1.02
2022-08-03T00:23:51.570Z,0.98
2022-08-03T00:26:20.585Z,0.90
2022-08-03T00:28:48.343Z,0.90
2022-08-03T00:31:16.051Z,1.00
2022-08-03T00:33:57.998Z,0.95
2022-08-03T00:36:27.602Z,0.90
2022-08-03T00:38:55.340Z,0.90
2022-08-03T00:41:23.205Z,0.80
2022-08-03T00:43:51.086Z,1.00
2022-08-03T00:46:21.827Z,1.05
2022-08-03T00:48:50.133Z,1.00
2022-08-03T00:51:18.186Z,1.13
2022-08-03T00:53:46.424Z,0.90
2022-08-03T00:56:14.165Z,1.00
2022-08-03T00:58:42.075Z,0.88
2022-08-03T01:01:09.859Z,0.90
2022-08-03T01:03:37.610Z,0.90
2022-08-03T01:06:05.350Z,0.85
2022-08-03T01:08:33.329Z,1.10
2022-08-03T01:11:01.033Z,0.90
2022-08-03T01:14:03.410Z,1.10
2022-08-03T01:16:16.565Z,0.98
2022-08-03T01:18:44.293Z,0.93
2022-08-03T01:21:12.173Z,1.10
2022-08-03T01:23:40.188Z,1.00
2022-08-03T01:26:07.879Z,1.00
2022-08-03T01:28:35.630Z,1.08
2022-08-03T01:31:03.366Z,1.02
2022-08-03T01:33:31.179Z,1.00
2022-08-03T01:35:58.938Z,1.10
2022-08-03T01:38:26.649Z,1.08
2022-08-03T01:40:54.779Z,1.10
2022-08-03T01:44:27.593Z,1.00
2022-08-03T01:46:11.713Z,0.95
2022-08-03T01:48:39.428Z,1.00
2022-08-03T01:51:07.340Z,0.95
2022-08-03T01:53:35.107Z,1.13
2022-08-03T01:56:02.830Z,1.00
2022-08-03T01:58:30.533Z,0.98
2022-08-03T02:01:01.109Z,1.00
2022-08-03T02:03:28.908Z,1.00
2022-08-03T02:06:17.914Z,1.02
2022-08-03T02:08:44.406Z,1.00
2022-08-03T02:11:12.247Z,1.10
2022-08-03T02:13:39.942Z,0.88
2022-08-03T02:16:07.655Z,1.08
2022-08-03T02:18:35.543Z,0.90
2022-08-03T02:21:10.615Z,1.08
2022-08-03T02:23:39.027Z,1.00
2022-08-03T02:26:06.799Z,1.10
2022-08-03T02:28:34.484Z,1.00
2022-08-03T02:31:02.406Z,1.10
2022-08-03T02:33:30.171Z,1.00
2022-08-03T02:35:57.927Z,1.02
2022-08-03T02:38:25.628Z,0.90
2022-08-03T02:40:53.385Z,1.13
2022-08-03T02:43:21.356Z,1.10
2022-08-03T02:45:49.073Z,0.95
2022-08-03T02:48:16.911Z,1.00
2022-08-03T02:50:44.743Z,1.20
2022-08-03T02:53:12.610Z,0.90
2022-08-03T02:55:43.299Z,1.00
2022-08-03T02:58:13.642Z,1.05
2022-08-03T03:00:41.433Z,1.00
2022-08-03T03:03:09.354Z,1.27
2022-08-03T03:05:56.761Z,0.95
2022-08-03T03:08:28.080Z,1.00
2022-08-03T03:10:56.432Z,1.00
2022-08-03T03:13:24.184Z,1.10
2022-08-03T03:15:52.078Z,1.10
2022-08-03T03:18:22.575Z,1.23
2022-08-03T03:20:51.434Z,0.93
2022-08-03T03:23:19.228Z,1.02
2022-08-03T03:25:46.956Z,1.10
2022-08-03T03:28:14.749Z,0.95
2022-08-03T03:30:42.497Z,1.08
2022-08-03T03:33:10.204Z,1.00
2022-08-03T03:35:39.189Z,1.23
2022-08-03T03:38:07.255Z,0.90
2022-08-03T03:40:34.988Z,1.00
2022-08-03T03:43:02.788Z,1.15
2022-08-03T03:45:30.608Z,1.10
2022-08-03T03:47:58.419Z,1.10
2022-08-03T03:50:26.117Z,1.00
2022-08-03T03:52:54.131Z,1.00
2022-08-03T03:55:21.867Z,1.10
2022-08-03T03:57:49.562Z,1.05
2022-08-03T04:00:17.341Z,0.98
2022-08-03T04:02:45.107Z,0.90
2022-08-03T04:05:30.617Z,1.35
2022-08-03T04:08:15.678Z,1.08
2022-08-03T04:11:02.263Z,1.30
2022-08-03T04:13:30.231Z,0.90
2022-08-03T04:15:57.933Z,1.20
2022-08-03T04:18:25.667Z,1.00
2022-08-03T04:20:53.362Z,1.10
2022-08-03T04:23:21.246Z,1.10
2022-08-03T04:25:49.146Z,1.30
2022-08-03T04:28:29.777Z,1.20
2022-08-03T04:30:59.290Z,1.38
2022-08-03T04:33:29.341Z,1.42
2022-08-03T04:36:01.712Z,1.60
2022-08-03T04:38:30.362Z,1.60
2022-08-03T04:40:58.089Z,1.50
2022-08-03T04:43:25.972Z,1.60
2022-08-03T04:45:54.056Z,1.60
2022-08-03T04:48:23.555Z,1.45
2022-08-03T04:50:51.228Z,1.65
2022-08-03T04:53:19.559Z,1.75
2022-08-03T04:55:47.419Z,1.55
2022-08-03T04:58:15.131Z,1.65
2022-08-03T05:00:43.370Z,1.80
2022-08-03T05:03:20.454Z,1.58
2022-08-03T05:05:52.085Z,1.60
2022-08-03T05:08:27.788Z,1.60
2022-08-03T05:10:55.945Z,1.45
2022-08-03T05:13:27.210Z,1.90
2022-08-03T05:15:54.897Z,1.40
2022-08-03T05:18:29.602Z,1.60
2022-08-03T05:20:57.300Z,1.80
2022-08-03T05:23:25.138Z,1.70
2022-08-03T05:25:52.842Z,1.63
2022-08-03T05:28:20.562Z,1.50
2022-08-03T05:30:48.589Z,1.52
2022-08-03T05:33:16.317Z,1.70
2022-08-03T05:36:01.701Z,1.73
2022-08-03T05:38:34.085Z,1.40
2022-08-03T05:41:20.251Z,1.70
2022-08-03T05:43:50.530Z,1.50
2022-08-03T05:46:18.252Z,1.40
2022-08-03T05:48:45.998Z,1.60
2022-08-03T05:51:13.748Z,1.50
2022-08-03T05:53:41.692Z,1.65
2022-08-03T05:56:13.908Z,1.52
2022-08-03T05:58:43.407Z,1.50
2022-08-03T06:01:11.136Z,1.63
2022-08-03T06:03:38.881Z,1.52
2022-08-03T06:06:06.627Z,1.60
2022-08-03T06:08:34.269Z,1.50
2022-08-03T06:11:01.949Z,1.45
2022-08-03T06:13:29.751Z,1.50
2022-08-03T06:15:57.417Z,2.25
2022-08-03T06:18:25.281Z,3.53
2022-08-03T06:20:53.024Z,2.25
2022-08-03T06:23:20.711Z,2.25
2022-08-03T06:25:48.427Z,2.45
2022-08-03T06:31:06.785Z,1.80
2022-08-03T06:33:48.403Z,2.28
2022-08-03T06:36:25.854Z,2.28
2022-08-03T06:38:53.582Z,2.65
2022-08-03T06:41:21.324Z,2.38
2022-08-03T06:44:03.147Z,2.17
2022-08-03T06:46:32.141Z,2.20
2022-08-03T06:48:59.841Z,2.30
2022-08-03T06:52:05.203Z,1.95
2022-08-03T06:54:15.523Z,2.08
2022-08-03T06:56:43.230Z,2.05
2022-08-03T07:00:09.680Z,2.60
2022-08-03T07:01:58.644Z,2.17
2022-08-03T07:04:26.326Z,1.80
2022-08-03T07:06:54.327Z,2.17
2022-08-03T07:09:22.530Z,2.13
2022-08-03T07:11:50.217Z,1.90
2022-08-03T07:14:17.909Z,2.10
2022-08-03T07:16:45.707Z,2.10
2022-08-03T07:19:13.386Z,2.10
2022-08-03T07:21:41.073Z,2.03
2022-08-03T07:24:08.802Z,1.90
2022-08-03T07:26:39.201Z,2.22
2022-08-03T07:29:14.744Z,2.28
2022-08-03T07:31:43.203Z,2.10
2022-08-03T07:34:11.102Z,2.03
2022-08-03T07:36:38.790Z,1.90
2022-08-03T07:39:15.814Z,1.90
2022-08-03T07:41:45.598Z,2.20
2022-08-03T07:44:13.286Z,1.98
2022-08-03T07:46:40.945Z,1.60
2022-08-03T07:49:08.660Z,1.73
2022-08-03T07:51:36.325Z,1.90
2022-08-03T07:54:04.057Z,1.90
2022-08-03T07:56:32.553Z,1.80
2022-08-03T07:59:00.256Z,1.63
2022-08-03T08:01:27.966Z,1.88
2022-08-03T08:03:55.687Z,1.98
2022-08-03T08:06:23.548Z,1.63
2022-08-03T08:08:51.239Z,2.00
2022-08-03T08:11:18.920Z,1.73
2022-08-03T08:13:46.606Z,1.77
2022-08-03T08:16:14.315Z,1.90
2022-08-03T08:18:42.202Z,2.15
2022-08-03T08:21:10.275Z,1.88
2022-08-03T08:23:44.173Z,1.70
2022-08-03T08:26:15.250Z,1.60
2022-08-03T08:28:42.887Z,1.65
2022-08-03T08:31:10.578Z,1.80
2022-08-03T08:34:02.576Z,2.00
2022-08-03T08:36:26.997Z,1.85
2022-08-03T08:38:54.676Z,1.70
2022-08-03T08:41:22.392Z,1.48
2022-08-03T08:43:50.265Z,1.80
2022-08-03T08:46:23.659Z,1.48
2022-08-03T08:48:51.761Z,1.60
2022-08-03T08:51:19.499Z,2.00
2022-08-03T08:53:47.200Z,1.60
2022-08-03T08:56:15.500Z,1.60
2022-08-03T08:58:43.267Z,1.52
2022-08-03T09:01:11.110Z,1.60
2022-08-03T09:03:38.862Z,1.90
2022-08-03T09:06:08.941Z,1.60
2022-08-03T09:08:36.691Z,1.60
2022-08-03T09:11:04.415Z,1.52
2022-08-03T09:13:32.197Z,1.45
2022-08-03T09:16:01.171Z,1.48
2022-08-03T09:18:32.343Z,1.70
2022-08-03T09:21:14.815Z,1.40
2022-08-03T09:24:01.469Z,1.48
2022-08-03T09:26:30.972Z,1.60
2022-08-03T09:29:04.708Z,1.60
2022-08-03T09:31:33.550Z,1.67
2022-08-03T09:34:01.271Z,1.67
2022-08-03T09:36:29.288Z,1.38
2022-08-03T09:38:56.986Z,1.40
2022-08-03T09:41:24.661Z,1.42
2022-08-03T09:43:57.009Z,1.45
2022-08-03T09:46:24.675Z,1.60
2022-08-03T09:48:53.584Z,1.40
2022-08-03T09:52:23.035Z,1.33
2022-08-03T09:54:16.262Z,1.42
2022-08-03T09:56:46.965Z,1.63
2022-08-03T09:59:14.642Z,1.40
2022-08-03T10:01:45.345Z,1.45
2022-08-03T10:04:13.004Z,1.80
2022-08-03T10:06:40.699Z,1.42
2022-08-03T10:09:08.413Z,1.60
2022-08-03T10:11:40.809Z,1.30
2022-08-03T10:14:08.850Z,1.55
2022-08-03T10:16:36.547Z,1.45
2022-08-03T10:19:04.237Z,1.60
2022-08-03T10:21:31.945Z,1.25
2022-08-03T10:23:59.758Z,1.67
2022-08-03T10:26:27.530Z,1.40
2022-08-03T10:28:55.760Z,1.52
2022-08-03T10:31:23.516Z,1.42
2022-08-03T10:33:53.177Z,1.42
2022-08-03T10:36:21.205Z,1.30
2022-08-03T10:38:52.597Z,1.30
2022-08-03T10:41:20.487Z,1.40
2022-08-03T10:43:49.072Z,1.50
2022-08-03T10:46:17.028Z,1.10
2022-08-03T10:48:44.731Z,1.55
2022-08-03T10:51:12.460Z,1.15
2022-08-03T10:53:40.530Z,1.30
2022-08-03T10:56:49.460Z,1.10
2022-08-03T10:59:27.509Z,1.13
2022-08-03T11:01:58.346Z,1.23
2022-08-03T11:04:27.281Z,1.50
2022-08-03T11:06:55.026Z,1.48
2022-08-03T11:09:22.751Z,1.30
2022-08-03T11:11:51.478Z,1.25
2022-08-03T11:14:19.205Z,1.30
2022-08-03T11:16:47.882Z,1.33
2022-08-03T11:19:15.661Z,1.30
2022-08-03T11:21:43.385Z,1.40
2022-08-03T11:24:11.132Z,1.33
2022-08-03T11:26:38.859Z,1.10
2022-08-03T11:29:06.686Z,1.33
2022-08-03T11:31:50.949Z,1.20
2022-08-03T11:34:19.511Z,1.33
2022-08-03T11:36:47.314Z,1.48
2022-08-03T11:39:16.904Z,1.30
2022-08-03T11:41:45.317Z,1.27
2022-08-03T11:44:13.250Z,1.30
2022-08-03T11:46:40.981Z,1.25
2022-08-03T11:49:10.936Z,1.27
2022-08-03T11:51:40.052Z,1.30
2022-08-03T11:54:07.808Z,1.23
2022-08-03T11:56:35.583Z,1.23
2022-08-03T11:59:17.952Z,1.17
2022-08-03T12:01:48.846Z,1.20
2022-08-03T12:04:17.367Z,1.08
2022-08-03T12:06:55.766Z,1.30
2022-08-03T12:09:23.504Z,1.27
2022-08-03T12:11:57.641Z,1.17
2022-08-03T12:14:49.164Z,1.15
2022-08-03T12:17:16.566Z,1.13
2022-08-03T12:19:44.503Z,1.20
2022-08-03T12:22:12.257Z,1.23
2022-08-03T12:24:40.023Z,1.30
2022-08-03T12:27:07.779Z,1.20
2022-08-03T12:29:35.513Z,1.17
2022-08-03T12:32:03.187Z,1.15
2022-08-03T12:34:30.982Z,1.20
2022-08-03T12:37:00.254Z,1.17
2022-08-03T12:39:30.921Z,1.20
2022-08-03T12:41:59.144Z,1.33
2022-08-03T12:44:26.901Z,1.20
2022-08-03T12:46:54.611Z,1.20
2022-08-03T12:49:22.470Z,1.30
2022-08-03T12:51:50.200Z,1.30
2022-08-03T12:54:17.940Z,1.10
2022-08-03T12:56:52.615Z,1.20
2022-08-03T12:59:20.305Z,1.30
2022-08-03T13:01:55.295Z,1.30
2022-08-03T13:04:24.074Z,1.10
2022-08-03T13:07:02.615Z,1.20
2022-08-03T13:09:31.930Z,1.05
2022-08-03T13:12:02.476Z,1.25
2022-08-03T13:14:30.429Z,1.10
2022-08-03T13:16:58.211Z,0.98
2022-08-03T13:19:26.148Z,1.15
2022-08-03T13:22:04.264Z,1.10
2022-08-03T13:24:32.563Z,1.10
2022-08-03T13:27:00.279Z,1.17
2022-08-03T13:29:28.064Z,1.10
2022-08-03T13:31:55.904Z,0.98
2022-08-03T13:34:24.167Z,1.13
2022-08-03T13:37:09.330Z,1.02
2022-08-03T13:39:57.494Z,1.00
2022-08-03T13:42:25.168Z,1.10
2022-08-03T13:44:52.904Z,1.17
2022-08-03T13:47:20.992Z,1.10
2022-08-03T13:49:56.966Z,1.10
2022-08-03T13:52:29.745Z,1.05
2022-08-03T13:54:57.464Z,1.10
2022-08-03T13:58:06.024Z,1.10
2022-08-03T14:00:12.927Z,1.23
2022-08-03T14:02:56.232Z,0.80
2022-08-03T14:05:32.019Z,1.20
2022-08-03T14:08:04.773Z,1.20
2022-08-03T14:10:33.016Z,1.02
2022-08-03T14:13:01.335Z,0.90
2022-08-03T14:15:37.230Z,1.20
2022-08-03T14:18:06.105Z,1.00
2022-08-03T14:20:37.813Z,1.00
2022-08-03T14:23:14.628Z,1.20
2022-08-03T14:25:50.062Z,0.95
2022-08-03T14:28:20.449Z,1.25
2022-08-03T14:30:48.730Z,0.90
2022-08-03T14:33:16.621Z,1.00
2022-08-03T14:35:44.470Z,0.98
2022-08-03T14:38:12.196Z,1.08
2022-08-03T14:40:39.966Z,1.00
2022-08-03T14:43:07.755Z,1.10
2022-08-03T14:45:35.571Z,1.02
2022-08-03T14:50:34.481Z,1.02
2022-08-03T14:50:52.588Z,0.95
2022-08-03T14:53:20.481Z,1.02
2022-08-03T14:55:50.354Z,0.95
2022-08-03T14:58:21.116Z,0.90
2022-08-03T15:00:49.549Z,0.90
2022-08-03T15:03:20.452Z,0.90
2022-08-03T15:05:48.391Z,0.88
2022-08-03T15:08:16.262Z,1.05
2022-08-03T15:10:50.742Z,0.82
2022-08-03T15:13:18.535Z,1.10
2022-08-03T15:15:46.401Z,0.88
2022-08-03T15:18:14.581Z,1.20
2022-08-03T15:20:45.405Z,1.02
2022-08-03T15:23:14.358Z,1.00
2022-08-03T15:26:03.973Z,1.00
2022-08-03T15:28:30.207Z,0.90
2022-08-03T15:30:58.070Z,1.08
2022-08-03T15:33:25.805Z,1.00
2022-08-03T15:35:53.558Z,0.90
2022-08-03T15:38:25.811Z,1.00
2022-08-03T15:40:54.550Z,1.08
2022-08-03T15:43:22.390Z,0.90
2022-08-03T15:46:19.005Z,0.82
2022-08-03T15:48:37.892Z,1.08
2022-08-03T15:51:05.745Z,0.90
2022-08-03T15:53:33.586Z,1.00
2022-08-03T15:56:02.032Z,1.10
2022-08-03T15:59:03.988Z,0.82
2022-08-03T16:01:21.349Z,1.10
2022-08-03T16:03:49.395Z,1.10
2022-08-03T16:06:17.088Z,0.90
2022-08-03T16:08:57.181Z,1.00
2022-08-03T16:11:25.045Z,1.00
2022-08-03T16:14:13.044Z,1.00
2022-08-03T16:16:41.082Z,1.05
2022-08-03T16:19:08.897Z,0.90
2022-08-03T16:21:42.061Z,1.00
2022-08-03T16:24:17.535Z,1.30
2022-08-03T16:26:54.515Z,1.00
2022-08-03T16:29:23.840Z,0.98
2022-08-03T16:31:52.434Z,1.10
2022-08-03T16:34:20.357Z,1.10
2022-08-03T16:36:48.161Z,1.20
2022-08-03T16:39:16.092Z,1.20
2022-08-03T16:41:53.813Z,1.20
2022-08-03T16:44:28.777Z,1.20
2022-08-03T16:46:56.526Z,1.10
2022-08-03T16:49:54.686Z,1.27
2022-08-03T16:52:13.061Z,1.40
2022-08-03T16:54:41.054Z,1.30
2022-08-03T16:57:08.837Z,1.45
2022-08-03T16:59:37.134Z,1.48
2022-08-03T17:02:09.882Z,1.40
2022-08-03T17:04:40.319Z,1.30
2022-08-03T17:07:08.967Z,1.40
2022-08-03T17:09:38.861Z,1.40
2022-08-03T17:12:07.555Z,1.42
2022-08-03T17:14:38.688Z,1.30
2022-08-03T17:17:06.804Z,1.30
2022-08-03T17:19:35.087Z,1.40
2022-08-03T17:22:04.788Z,1.35
2022-08-03T17:24:32.781Z,1.42
2022-08-03T17:27:00.477Z,1.20
2022-08-03T17:29:29.788Z,1.27
2022-08-03T17:31:57.798Z,1.30
2022-08-03T17:34:26.444Z,1.40
2022-08-03T17:37:26.946Z,1.30
2022-08-03T17:39:58.164Z,1.23
2022-08-03T17:42:30.068Z,1.40
2022-08-03T17:48:02.544Z,1.30
2022-08-03T17:50:30.506Z,1.30
2022-08-03T17:52:58.369Z,1.20
2022-08-03T17:55:54.863Z,1.33
2022-08-03T17:58:13.953Z,1.35
2022-08-03T18:01:00.441Z,1.33
2022-08-03T18:03:29.332Z,1.38
2022-08-03T18:06:10.379Z,1.30
2022-08-03T18:08:40.433Z,1.30
2022-08-03T18:11:09.711Z,1.20
2022-08-03T18:13:57.955Z,1.15
2022-08-03T18:16:25.944Z,1.23
2022-08-03T18:18:55.672Z,1.27
2022-08-03T18:21:24.047Z,1.27
2022-08-03T18:23:52.257Z,1.08
2022-08-03T18:26:19.968Z,1.08
2022-08-03T18:28:47.688Z,1.38
2022-08-03T18:31:59.486Z,1.60
2022-08-03T18:34:19.401Z,1.50
2022-08-03T18:36:54.812Z,1.33
2022-08-03T18:39:23.762Z,1.50
2022-08-03T18:41:52.780Z,1.27
2022-08-03T18:44:53.182Z,1.42
2022-08-03T18:47:16.122Z,1.48
2022-08-03T18:49:44.607Z,1.40
2022-08-03T18:52:12.649Z,1.52
2022-08-03T18:54:45.653Z,1.50
2022-08-03T18:57:30.427Z,1.58
2022-08-03T19:00:02.893Z,1.70
2022-08-03T19:02:30.813Z,1.55
2022-08-03T19:04:58.627Z,1.60
2022-08-03T19:07:26.322Z,1.77
2022-08-03T19:09:54.443Z,1.70
2022-08-03T19:12:30.851Z,1.73
2022-08-03T19:15:00.470Z,1.50
2022-08-03T19:17:31.002Z,1.60
2022-08-03T19:19:58.733Z,1.50
2022-08-03T19:22:29.533Z,1.63
2022-08-03T19:24:57.918Z,1.70
2022-08-03T19:27:27.191Z,1.70
2022-08-03T19:29:58.719Z,1.60
2022-08-03T19:32:30.185Z,1.40
2022-08-03T19:34:59.454Z,1.80
2022-08-03T19:37:38.454Z,1.63
2022-08-03T19:40:11.000Z,1.58
2022-08-03T19:42:40.321Z,1.70
2022-08-03T19:45:11.212Z,1.80
2022-08-03T19:47:42.024Z,1.77
2022-08-03T19:50:14.052Z,1.80
2022-08-03T19:52:43.911Z,1.50
2022-08-03T19:55:12.215Z,1.60
2022-08-03T19:57:40.344Z,1.58
2022-08-03T20:00:11.902Z,1.38
2022-08-03T20:02:39.687Z,1.33
2022-08-03T20:05:12.010Z,1.50
2022-08-03T20:07:47.932Z,1.70
2022-08-03T20:10:16.129Z,1.50
2022-08-03T20:12:46.782Z,1.40
2022-08-03T20:15:18.057Z,1.60
2022-08-03T20:17:56.469Z,1.40
2022-08-03T20:20:25.103Z,1.70
2022-08-03T20:22:53.134Z,1.70
2022-08-03T20:25:25.534Z,1.50
2022-08-03T20:28:14.523Z,1.60
2022-08-03T20:30:42.658Z,1.40
2022-08-03T20:33:11.187Z,1.50
2022-08-03T20:35:41.975Z,1.60
2022-08-03T20:38:13.785Z,1.45
2022-08-03T20:40:41.748Z,1.25
2022-08-03T20:43:09.454Z,1.30
2022-08-03T20:46:00.648Z,1.55
2022-08-03T20:48:25.000Z,1.58
2022-08-03T20:50:54.487Z,1.60
2022-08-03T20:53:45.737Z,1.40
2022-08-03T20:56:10.132Z,1.55
2022-08-03T20:58:38.007Z,1.50
2022-08-03T21:01:09.635Z,1.55
2022-08-03T21:03:41.091Z,1.45
2022-08-03T21:06:27.815Z,1.58
2022-08-03T21:08:55.916Z,1.40
2022-08-03T21:11:25.060Z,1.50
2022-08-03T21:13:04.758Z,1.17
2022-08-03T21:13:52.757Z,1.50
2022-08-03T21:16:21.548Z,1.40
2022-08-03T21:18:49.273Z,1.60
2022-08-03T21:21:17.007Z,1.52
2022-08-03T21:23:48.774Z,1.50
2022-08-03T21:26:17.390Z,1.33
2022-08-03T21:28:45.179Z,1.40
2022-08-03T21:31:12.895Z,1.52
2022-08-03T21:33:41.164Z,1.60
2022-08-03T21:36:14.737Z,1.33
2022-08-03T21:38:43.779Z,1.50
2022-08-03T21:41:15.232Z,1.38
2022-08-03T21:43:42.954Z,1.50
2022-08-03T21:46:11.294Z,1.15
2022-08-03T21:48:39.117Z,1.30
2022-08-03T21:51:06.940Z,1.30
2022-08-03T21:54:03.020Z,1.48
2022-08-03T21:56:22.570Z,1.30
2022-08-03T21:58:51.137Z,1.25
2022-08-03T22:01:20.201Z,1.58
2022-08-03T22:03:53.025Z,1.50
2022-08-03T22:06:21.552Z,1.50
2022-08-03T22:08:50.144Z,1.30
2022-08-03T22:11:17.871Z,1.35
2022-08-03T22:13:45.791Z,1.33
2022-08-03T22:16:13.528Z,1.30
2022-08-03T22:18:41.253Z,1.30
2022-08-03T22:21:09.024Z,1.48
2022-08-03T22:23:36.745Z,1.50
2022-08-03T22:26:04.506Z,1.35
2022-08-03T22:28:32.226Z,1.50
2022-08-03T22:31:00.115Z,1.40
2022-08-03T22:33:47.849Z,1.50
2022-08-03T22:36:15.502Z,1.55
2022-08-03T22:38:43.425Z,1.52
2022-08-03T22:41:11.079Z,1.30
2022-08-03T22:43:38.771Z,1.35
2022-08-03T22:46:14.390Z,1.40
2022-08-03T22:48:44.601Z,1.20
2022-08-03T22:51:12.270Z,1.40
2022-08-03T22:53:41.268Z,1.50
2022-08-03T22:56:09.138Z,1.30
2022-08-03T22:58:36.884Z,1.40
2022-08-03T23:01:04.697Z,1.50
2022-08-03T23:04:00.713Z,1.50
2022-08-03T23:06:20.080Z,1.50
2022-08-03T23:08:47.949Z,1.60
2022-08-03T23:11:15.631Z,1.40
2022-08-03T23:13:43.347Z,1.30
2022-08-03T23:16:11.059Z,1.25
2022-08-03T23:18:38.814Z,1.27
2022-08-03T23:21:11.240Z,1.20
2022-08-03T23:23:44.558Z,1.23
2022-08-03T23:26:12.566Z,1.30
2022-08-03T23:28:40.248Z,1.30
2022-08-03T23:31:07.904Z,1.30
2022-08-03T23:33:35.679Z,1.35
2022-08-03T23:36:28.779Z,1.17
2022-08-03T23:38:53.438Z,1.40
2022-08-03T23:41:21.292Z,1.30
2022-08-03T23:43:53.537Z,1.05
2022-08-03T23:46:22.567Z,1.10
2022-08-03T23:48:50.335Z,1.30
2022-08-03T23:51:18.089Z,1.20
2022-08-03T23:53:48.050Z,1.20
2022-08-03T23:56:15.705Z,1.20
2022-08-03T23:58:43.570Z,1.20
